sensor_id;sensor_type;location;lat;lon;timestamp;pressure;altitude;pressure_sealevel;temperature;humidity
80149;BME280;69473;42.426;26.644;2023-09-19T00:00:34;99364.94;;;17.75;62.48
80149;BME280;69473;42.426;26.644;2023-09-19T00:03:01;99368.25;;;17.84;63.23
80149;BME280;69473;42.426;26.644;2023-09-19T00:05:28;99371.53;;;17.92;61.62
80149;BME280;69473;42.426;26.644;2023-09-19T00:07:56;99356.66;;;17.92;62.32
80149;BME280;69473;42.426;26.644;2023-09-19T00:10:24;99362.53;;;18.02;62.14
80149;BME280;69473;42.426;26.644;2023-09-19T00:12:55;99369.38;;;18.06;62.17
80149;BME280;69473;42.426;26.644;2023-09-19T00:15:25;99355.41;;;18.07;61.82
80149;BME280;69473;42.426;26.644;2023-09-19T00:17:54;99371.03;;;18.10;61.89
80149;BME280;69473;42.426;26.644;2023-09-19T00:20:20;99361.41;;;18.11;61.32
80149;BME280;69473;42.426;26.644;2023-09-19T00:22:50;99354.34;;;18.13;60.70
80149;BME280;69473;42.426;26.644;2023-09-19T00:25:17;99353.41;;;18.15;61.01
80149;BME280;69473;42.426;26.644;2023-09-19T00:27:43;99350.00;;;18.13;61.09
80149;BME280;69473;42.426;26.644;2023-09-19T00:30:11;99348.22;;;18.14;61.36
80149;BME280;69473;42.426;26.644;2023-09-19T00:32:48;99344.75;;;18.13;60.93
80149;BME280;69473;42.426;26.644;2023-09-19T00:35:17;99315.56;;;17.93;60.73
80149;BME280;69473;42.426;26.644;2023-09-19T00:37:43;99313.13;;;17.87;60.46
80149;BME280;69473;42.426;26.644;2023-09-19T00:40:10;99336.56;;;17.93;61.00
80149;BME280;69473;42.426;26.644;2023-09-19T00:42:41;99341.13;;;17.85;60.57
80149;BME280;69473;42.426;26.644;2023-09-19T00:45:08;99344.81;;;17.77;61.11
80149;BME280;69473;42.426;26.644;2023-09-19T00:47:43;99344.31;;;17.63;62.38
80149;BME280;69473;42.426;26.644;2023-09-19T00:50:09;99340.84;;;17.61;61.72
80149;BME280;69473;42.426;26.644;2023-09-19T00:52:40;99340.97;;;17.57;62.61
80149;BME280;69473;42.426;26.644;2023-09-19T00:55:09;99337.41;;;17.59;61.88
80149;BME280;69473;42.426;26.644;2023-09-19T00:57:36;99340.00;;;17.61;62.73
80149;BME280;69473;42.426;26.644;2023-09-19T01:00:06;99335.69;;;17.58;62.84
80149;BME280;69473;42.426;26.644;2023-09-19T01:02:34;99339.38;;;17.51;62.23
80149;BME280;69473;42.426;26.644;2023-09-19T01:05:01;99344.78;;;17.45;62.87
80149;BME280;69473;42.426;26.644;2023-09-19T01:07:31;99346.50;;;17.46;62.03
80149;BME280;69473;42.426;26.644;2023-09-19T01:09:59;99344.69;;;17.48;63.09
80149;BME280;69473;42.426;26.644;2023-09-19T01:15:38;99360.25;;;17.54;63.47
80149;BME280;69473;42.426;26.644;2023-09-19T01:20:45;99360.25;;;17.54;64.32
80149;BME280;69473;42.426;26.644;2023-09-19T01:29:13;99349.72;;;17.57;64.50
80149;BME280;69473;42.426;26.644;2023-09-19T01:31:45;99360.03;;;17.63;64.36
80149;BME280;69473;42.426;26.644;2023-09-19T01:34:12;99354.53;;;17.72;63.18
80149;BME280;69473;42.426;26.644;2023-09-19T01:36:38;99347.28;;;17.84;63.44
80149;BME280;69473;42.426;26.644;2023-09-19T01:39:14;99352.28;;;17.93;63.34
80149;BME280;69473;42.426;26.644;2023-09-19T01:42:02;99362.47;;;18.04;62.28
80149;BME280;69473;42.426;26.644;2023-09-19T01:47:19;99339.75;;;18.04;62.02
80149;BME280;69473;42.426;26.644;2023-09-19T01:52:47;99347.38;;;18.12;61.17
80149;BME280;69473;42.426;26.644;2023-09-19T01:55:16;99355.22;;;18.13;61.97
80149;BME280;69473;42.426;26.644;2023-09-19T02:00:28;99349.31;;;18.05;60.99
80149;BME280;69473;42.426;26.644;2023-09-19T02:02:56;99358.28;;;17.98;61.65
80149;BME280;69473;42.426;26.644;2023-09-19T02:05:25;99355.72;;;17.95;61.19
80149;BME280;69473;42.426;26.644;2023-09-19T02:07:51;99355.06;;;17.87;61.62
80149;BME280;69473;42.426;26.644;2023-09-19T02:10:18;99347.50;;;17.74;61.60
80149;BME280;69473;42.426;26.644;2023-09-19T02:12:44;99354.44;;;17.77;60.97
80149;BME280;69473;42.426;26.644;2023-09-19T02:15:10;99333.84;;;17.63;61.29
80149;BME280;69473;42.426;26.644;2023-09-19T02:17:36;99357.97;;;17.74;62.09
80149;BME280;69473;42.426;26.644;2023-09-19T02:20:02;99345.00;;;17.70;62.50
80149;BME280;69473;42.426;26.644;2023-09-19T02:22:29;99351.09;;;17.70;61.57
80149;BME280;69473;42.426;26.644;2023-09-19T02:24:55;99318.59;;;17.45;61.66
80149;BME280;69473;42.426;26.644;2023-09-19T02:27:23;99353.22;;;17.56;62.32
80149;BME280;69473;42.426;26.644;2023-09-19T02:29:49;99344.63;;;17.51;63.73
80149;BME280;69473;42.426;26.644;2023-09-19T02:32:15;99347.31;;;17.48;64.06
80149;BME280;69473;42.426;26.644;2023-09-19T02:34:43;99350.03;;;17.45;64.26
80149;BME280;69473;42.426;26.644;2023-09-19T02:37:10;99346.56;;;17.43;64.08
80149;BME280;69473;42.426;26.644;2023-09-19T02:39:35;99334.59;;;17.33;63.61
80149;BME280;69473;42.426;26.644;2023-09-19T02:42:01;99341.56;;;17.34;63.92
80149;BME280;69473;42.426;26.644;2023-09-19T02:44:29;99338.09;;;17.31;63.64
80149;BME280;69473;42.426;26.644;2023-09-19T02:46:55;99339.91;;;17.29;64.42
80149;BME280;69473;42.426;26.644;2023-09-19T02:49:22;99340.72;;;17.31;64.28
80149;BME280;69473;42.426;26.644;2023-09-19T02:51:49;99334.53;;;17.36;64.83
80149;BME280;69473;42.426;26.644;2023-09-19T02:54:15;99341.84;;;17.21;65.35
80149;BME280;69473;42.426;26.644;2023-09-19T02:56:41;99331.53;;;17.15;64.99
80149;BME280;69473;42.426;26.644;2023-09-19T02:59:07;99336.69;;;17.18;65.27
80149;BME280;69473;42.426;26.644;2023-09-19T03:01:32;99331.59;;;17.12;64.83
80149;BME280;69473;42.426;26.644;2023-09-19T03:03:59;99329.97;;;17.08;65.65
80149;BME280;69473;42.426;26.644;2023-09-19T03:06:24;99328.97;;;17.14;64.76
80149;BME280;69473;42.426;26.644;2023-09-19T03:08:50;99332.38;;;17.16;64.91
80149;BME280;69473;42.426;26.644;2023-09-19T03:11:17;99318.41;;;17.17;65.12
80149;BME280;69473;42.426;26.644;2023-09-19T03:13:53;99316.72;;;17.14;65.01
80149;BME280;69473;42.426;26.644;2023-09-19T03:16:19;99305.50;;;17.09;65.26
80149;BME280;69473;42.426;26.644;2023-09-19T03:18:48;99296.88;;;17.04;65.25
80149;BME280;69473;42.426;26.644;2023-09-19T03:21:17;99313.34;;;17.09;65.25
80149;BME280;69473;42.426;26.644;2023-09-19T03:23:44;99297.13;;;16.95;65.29
80149;BME280;69473;42.426;26.644;2023-09-19T03:26:12;99303.94;;;17.02;66.07
80149;BME280;69473;42.426;26.644;2023-09-19T03:28:38;99304.78;;;17.02;66.44
80149;BME280;69473;42.426;26.644;2023-09-19T03:31:05;99309.94;;;17.05;65.57
80149;BME280;69473;42.426;26.644;2023-09-19T03:33:32;99298.69;;;17.02;65.54
80149;BME280;69473;42.426;26.644;2023-09-19T03:35:59;99296.06;;;17.02;65.86
80149;BME280;69473;42.426;26.644;2023-09-19T03:38:26;99293.47;;;17.02;66.47
80149;BME280;69473;42.426;26.644;2023-09-19T03:40:53;99295.25;;;17.00;66.27
80149;BME280;69473;42.426;26.644;2023-09-19T03:43:19;99298.63;;;17.05;66.08
80149;BME280;69473;42.426;26.644;2023-09-19T03:45:44;99280.47;;;16.97;66.42
80149;BME280;69473;42.426;26.644;2023-09-19T03:48:12;99295.09;;;17.06;65.71
80149;BME280;69473;42.426;26.644;2023-09-19T03:50:38;99292.47;;;17.06;65.85
80149;BME280;69473;42.426;26.644;2023-09-19T03:53:05;99289.84;;;17.06;66.49
80149;BME280;69473;42.426;26.644;2023-09-19T03:55:32;99291.63;;;17.04;66.05
80149;BME280;69473;42.426;26.644;2023-09-19T03:58:01;99284.84;;;16.97;66.44
80149;BME280;69473;42.426;26.644;2023-09-19T04:00:26;99286.66;;;16.95;67.88
80149;BME280;69473;42.426;26.644;2023-09-19T04:02:53;99286.22;;;16.76;68.09
80149;BME280;69473;42.426;26.644;2023-09-19T04:05:19;99292.50;;;16.67;67.82
80149;BME280;69473;42.426;26.644;2023-09-19T04:07:45;99291.03;;;16.54;67.01
80149;BME280;69473;42.426;26.644;2023-09-19T04:10:10;99291.38;;;16.38;68.08
80149;BME280;69473;42.426;26.644;2023-09-19T04:12:40;99292.13;;;16.45;68.95
80149;BME280;69473;42.426;26.644;2023-09-19T04:15:06;99292.56;;;16.64;68.78
80149;BME280;69473;42.426;26.644;2023-09-19T04:17:33;99302.19;;;16.63;67.42
80149;BME280;69473;42.426;26.644;2023-09-19T04:19:59;99305.78;;;16.16;66.77
80149;BME280;69473;42.426;26.644;2023-09-19T04:22:26;99308.09;;;15.89;67.39
80149;BME280;69473;42.426;26.644;2023-09-19T04:24:51;99300.69;;;15.63;67.57
80149;BME280;69473;42.426;26.644;2023-09-19T04:27:17;99313.44;;;15.83;67.79
80149;BME280;69473;42.426;26.644;2023-09-19T04:29:44;99309.72;;;15.93;66.98
80149;BME280;69473;42.426;26.644;2023-09-19T04:32:10;99314.72;;;16.06;66.99
80149;BME280;69473;42.426;26.644;2023-09-19T04:34:36;99317.44;;;16.01;67.04
80149;BME280;69473;42.426;26.644;2023-09-19T04:37:03;99322.56;;;16.06;66.21
80149;BME280;69473;42.426;26.644;2023-09-19T04:39:29;99323.81;;;15.86;67.23
80149;BME280;69473;42.426;26.644;2023-09-19T04:41:55;99323.94;;;15.80;67.13
80149;BME280;69473;42.426;26.644;2023-09-19T04:44:20;99330.53;;;16.00;66.56
80149;BME280;69473;42.426;26.644;2023-09-19T04:46:46;99330.66;;;16.77;65.00
80149;BME280;69473;42.426;26.644;2023-09-19T04:49:12;99328.75;;;16.85;64.51
80149;BME280;69473;42.426;26.644;2023-09-19T04:51:38;99323.66;;;16.79;63.20
80149;BME280;69473;42.426;26.644;2023-09-19T04:54:05;99324.88;;;17.02;62.59
80149;BME280;69473;42.426;26.644;2023-09-19T04:56:31;99324.72;;;17.08;61.84
80149;BME280;69473;42.426;26.644;2023-09-19T04:59:00;99322.03;;;16.72;63.53
80149;BME280;69473;42.426;26.644;2023-09-19T05:01:26;99321.22;;;16.70;64.22
80149;BME280;69473;42.426;26.644;2023-09-19T05:03:52;99327.44;;;16.63;64.17
80149;BME280;69473;42.426;26.644;2023-09-19T05:06:21;99330.97;;;16.62;64.57
80149;BME280;69473;42.426;26.644;2023-09-19T05:08:47;99326.81;;;16.53;64.42
80149;BME280;69473;42.426;26.644;2023-09-19T05:11:20;99332.69;;;16.63;64.75
80149;BME280;69473;42.426;26.644;2023-09-19T05:13:47;99330.75;;;16.32;64.96
80149;BME280;69473;42.426;26.644;2023-09-19T05:16:13;99331.63;;;16.31;64.85
80149;BME280;69473;42.426;26.644;2023-09-19T05:18:39;99317.19;;;16.54;64.07
80149;BME280;69473;42.426;26.644;2023-09-19T05:21:05;99288.25;;;16.61;64.53
80149;BME280;69473;42.426;26.644;2023-09-19T05:23:31;99309.88;;;17.08;63.58
80149;BME280;69473;42.426;26.644;2023-09-19T05:25:57;99317.84;;;17.72;62.45
80149;BME280;69473;42.426;26.644;2023-09-19T05:28:26;99315.91;;;18.12;60.67
80149;BME280;69473;42.426;26.644;2023-09-19T05:30:52;99315.50;;;17.96;62.26
80149;BME280;69473;42.426;26.644;2023-09-19T05:33:20;99318.44;;;18.16;61.32
80149;BME280;69473;42.426;26.644;2023-09-19T05:35:47;99323.59;;;19.85;57.56
80149;BME280;69473;42.426;26.644;2023-09-19T05:38:13;99322.41;;;20.66;55.29
80149;BME280;69473;42.426;26.644;2023-09-19T05:40:41;99324.00;;;20.70;54.93
80149;BME280;69473;42.426;26.644;2023-09-19T05:43:10;99310.59;;;19.80;57.30
80149;BME280;69473;42.426;26.644;2023-09-19T05:45:36;99327.25;;;19.28;59.72
80149;BME280;69473;42.426;26.644;2023-09-19T05:48:14;99325.75;;;18.94;60.85
80149;BME280;69473;42.426;26.644;2023-09-19T05:50:41;99338.94;;;18.63;60.81
80149;BME280;69473;42.426;26.644;2023-09-19T05:53:07;99337.50;;;17.90;62.00
80149;BME280;69473;42.426;26.644;2023-09-19T05:55:33;99344.03;;;17.72;62.96
80149;BME280;69473;42.426;26.644;2023-09-19T05:57:59;99340.16;;;17.89;63.40
80149;BME280;69473;42.426;26.644;2023-09-19T06:00:26;99336.03;;;18.11;64.13
80149;BME280;69473;42.426;26.644;2023-09-19T06:02:54;99334.44;;;18.37;62.64
80149;BME280;69473;42.426;26.644;2023-09-19T06:05:20;99347.56;;;18.37;61.62
80149;BME280;69473;42.426;26.644;2023-09-19T06:07:47;99343.41;;;18.30;61.92
80149;BME280;69473;42.426;26.644;2023-09-19T06:10:13;99347.63;;;18.34;63.33
80149;BME280;69473;42.426;26.644;2023-09-19T06:12:43;99346.53;;;18.11;61.37
80149;BME280;69473;42.426;26.644;2023-09-19T06:15:10;99349.31;;;18.05;62.58
80149;BME280;69473;42.426;26.644;2023-09-19T06:17:43;99355.31;;;18.10;61.54
80149;BME280;69473;42.426;26.644;2023-09-19T06:20:11;99347.03;;;18.26;62.01
80149;BME280;69473;42.426;26.644;2023-09-19T06:22:44;99340.91;;;18.55;61.41
80149;BME280;69473;42.426;26.644;2023-09-19T06:25:12;99339.28;;;18.80;61.42
80149;BME280;69473;42.426;26.644;2023-09-19T06:27:39;99339.28;;;19.08;59.81
80149;BME280;69473;42.426;26.644;2023-09-19T06:30:08;99332.44;;;19.03;60.47
80149;BME280;69473;42.426;26.644;2023-09-19T06:32:34;99342.19;;;18.99;60.34
80149;BME280;69473;42.426;26.644;2023-09-19T06:35:00;99336.66;;;18.80;61.11
80149;BME280;69473;42.426;26.644;2023-09-19T06:37:28;99351.75;;;19.02;60.66
80149;BME280;69473;42.426;26.644;2023-09-19T06:39:53;99346.78;;;19.21;60.09
80149;BME280;69473;42.426;26.644;2023-09-19T06:42:19;99354.34;;;19.30;59.70
80149;BME280;69473;42.426;26.644;2023-09-19T06:44:45;99355.41;;;19.51;59.03
80149;BME280;69473;42.426;26.644;2023-09-19T06:47:10;99349.09;;;19.56;58.36
80149;BME280;69473;42.426;26.644;2023-09-19T06:49:36;99354.03;;;19.92;57.05
80149;BME280;69473;42.426;26.644;2023-09-19T06:52:02;99352.59;;;20.56;55.88
80149;BME280;69473;42.426;26.644;2023-09-19T06:54:29;99347.91;;;20.87;55.23
80149;BME280;69473;42.426;26.644;2023-09-19T06:57:00;99348.75;;;21.10;54.67
80149;BME280;69473;42.426;26.644;2023-09-19T06:59:26;99349.28;;;21.82;53.17
80149;BME280;69473;42.426;26.644;2023-09-19T07:01:51;99353.97;;;22.35;52.00
80149;BME280;69473;42.426;26.644;2023-09-19T07:04:18;99344.94;;;26.22;42.11
80149;BME280;69473;42.426;26.644;2023-09-19T07:06:50;99352.59;;;26.13;43.13
80149;BME280;69473;42.426;26.644;2023-09-19T07:09:16;99355.41;;;24.23;47.47
80149;BME280;69473;42.426;26.644;2023-09-19T07:11:42;99346.69;;;23.16;50.11
80149;BME280;69473;42.426;26.644;2023-09-19T07:14:08;99346.78;;;22.77;51.46
80149;BME280;69473;42.426;26.644;2023-09-19T07:16:38;99347.31;;;22.66;51.62
80149;BME280;69473;42.426;26.644;2023-09-19T07:19:05;99330.59;;;28.27;40.32
80149;BME280;69473;42.426;26.644;2023-09-19T07:21:31;99334.66;;;32.09;33.02
80149;BME280;69473;42.426;26.644;2023-09-19T07:23:59;99330.81;;;31.60;32.69
80149;BME280;69473;42.426;26.644;2023-09-19T07:26:26;99325.03;;;32.58;31.10
80149;BME280;69473;42.426;26.644;2023-09-19T07:28:52;99319.06;;;31.19;33.30
80149;BME280;69473;42.426;26.644;2023-09-19T07:31:18;99320.59;;;27.80;39.35
80149;BME280;69473;42.426;26.644;2023-09-19T07:33:44;99328.69;;;25.84;43.69
80149;BME280;69473;42.426;26.644;2023-09-19T07:36:10;99338.59;;;25.80;44.36
80149;BME280;69473;42.426;26.644;2023-09-19T07:38:39;99331.94;;;26.03;44.02
80149;BME280;69473;42.426;26.644;2023-09-19T07:41:05;99327.75;;;25.25;45.51
80149;BME280;69473;42.426;26.644;2023-09-19T07:43:31;99315.69;;;24.87;46.97
80149;BME280;69473;42.426;26.644;2023-09-19T07:45:57;99300.50;;;24.26;47.57
80149;BME280;69473;42.426;26.644;2023-09-19T07:48:27;99324.91;;;24.15;48.53
80149;BME280;69473;42.426;26.644;2023-09-19T07:50:53;99300.84;;;24.36;48.13
80149;BME280;69473;42.426;26.644;2023-09-19T07:53:18;99312.38;;;23.68;49.66
80149;BME280;69473;42.426;26.644;2023-09-19T07:55:44;99318.41;;;23.18;49.96
80149;BME280;69473;42.426;26.644;2023-09-19T07:58:13;99302.84;;;23.29;50.46
80149;BME280;69473;42.426;26.644;2023-09-19T08:00:44;99282.75;;;23.95;48.53
80149;BME280;69473;42.426;26.644;2023-09-19T08:03:10;99307.06;;;23.68;49.87
80149;BME280;69473;42.426;26.644;2023-09-19T08:05:40;99307.84;;;23.53;50.17
80149;BME280;69473;42.426;26.644;2023-09-19T08:08:08;99311.44;;;23.52;49.59
80149;BME280;69473;42.426;26.644;2023-09-19T08:10:34;99310.72;;;23.48;49.81
80149;BME280;69473;42.426;26.644;2023-09-19T08:13:00;99308.16;;;23.12;50.39
80149;BME280;69473;42.426;26.644;2023-09-19T08:15:27;99314.63;;;23.05;50.76
80149;BME280;69473;42.426;26.644;2023-09-19T08:17:53;99303.75;;;22.94;50.46
80149;BME280;69473;42.426;26.644;2023-09-19T08:20:18;99306.09;;;23.17;49.69
80149;BME280;69473;42.426;26.644;2023-09-19T08:22:48;99305.03;;;22.85;50.77
80149;BME280;69473;42.426;26.644;2023-09-19T08:25:18;99304.25;;;23.19;48.37
80149;BME280;69473;42.426;26.644;2023-09-19T08:27:48;99306.78;;;23.40;48.30
80149;BME280;69473;42.426;26.644;2023-09-19T08:30:19;99300.88;;;23.52;48.37
80149;BME280;69473;42.426;26.644;2023-09-19T08:33:01;99304.41;;;23.51;47.72
80149;BME280;69473;42.426;26.644;2023-09-19T08:35:30;99305.75;;;23.60;46.87
80149;BME280;69473;42.426;26.644;2023-09-19T08:37:56;99298.59;;;23.44;47.66
80149;BME280;69473;42.426;26.644;2023-09-19T08:40:22;99295.88;;;23.46;47.11
80149;BME280;69473;42.426;26.644;2023-09-19T08:42:52;99286.06;;;23.65;46.63
80149;BME280;69473;42.426;26.644;2023-09-19T08:45:19;99286.69;;;23.88;46.08
80149;BME280;69473;42.426;26.644;2023-09-19T08:50:28;99284.53;;;23.44;46.45
80149;BME280;69473;42.426;26.644;2023-09-19T08:53:00;99284.66;;;23.58;46.72
80149;BME280;69473;42.426;26.644;2023-09-19T08:55:28;99266.00;;;23.26;46.20
80149;BME280;69473;42.426;26.644;2023-09-19T08:58:03;99270.81;;;23.70;44.92
80149;BME280;69473;42.426;26.644;2023-09-19T09:00:30;99271.69;;;24.04;44.88
80149;BME280;69473;42.426;26.644;2023-09-19T09:02:57;99260.66;;;24.45;43.83
80149;BME280;69473;42.426;26.644;2023-09-19T09:05:24;99263.84;;;25.44;41.70
80149;BME280;69473;42.426;26.644;2023-09-19T09:07:52;99255.69;;;26.06;41.47
80149;BME280;69473;42.426;26.644;2023-09-19T09:10:20;99247.78;;;25.17;40.68
80149;BME280;69473;42.426;26.644;2023-09-19T09:12:53;99256.88;;;24.97;41.07
80149;BME280;69473;42.426;26.644;2023-09-19T09:15:23;99250.16;;;25.51;39.15
80149;BME280;69473;42.426;26.644;2023-09-19T09:17:50;99247.09;;;25.57;39.57
80149;BME280;69473;42.426;26.644;2023-09-19T09:20:19;99243.72;;;25.55;39.25
80149;BME280;69473;42.426;26.644;2023-09-19T09:22:57;99237.25;;;25.45;39.88
80149;BME280;69473;42.426;26.644;2023-09-19T09:25:48;99238.59;;;25.52;38.66
80149;BME280;69473;42.426;26.644;2023-09-19T09:28:25;99248.09;;;25.71;39.02
80149;BME280;69473;42.426;26.644;2023-09-19T09:30:51;99230.44;;;25.70;39.40
80149;BME280;69473;42.426;26.644;2023-09-19T09:33:17;99231.94;;;25.45;39.11
80149;BME280;69473;42.426;26.644;2023-09-19T09:38:23;99225.75;;;25.89;38.22
80149;BME280;69473;42.426;26.644;2023-09-19T09:40:55;99225.06;;;25.86;37.74
80149;BME280;69473;42.426;26.644;2023-09-19T09:43:37;99212.63;;;26.15;38.05
80149;BME280;69473;42.426;26.644;2023-09-19T09:46:20;99213.25;;;26.74;36.72
80149;BME280;69473;42.426;26.644;2023-09-19T09:49:01;99212.97;;;26.23;37.73
80149;BME280;69473;42.426;26.644;2023-09-19T09:52:06;99210.91;;;26.28;38.14
80149;BME280;69473;42.426;26.644;2023-09-19T09:54:34;99205.38;;;26.31;37.93
80149;BME280;69473;42.426;26.644;2023-09-19T09:57:08;99209.13;;;26.14;37.58
80149;BME280;69473;42.426;26.644;2023-09-19T10:02:14;99200.63;;;26.51;37.69
80149;BME280;69473;42.426;26.644;2023-09-19T10:04:45;99188.59;;;26.72;36.93
80149;BME280;69473;42.426;26.644;2023-09-19T10:07:28;99173.78;;;26.95;37.25
80149;BME280;69473;42.426;26.644;2023-09-19T10:10:04;99190.09;;;26.35;37.01
80149;BME280;69473;42.426;26.644;2023-09-19T10:12:54;99182.97;;;26.49;37.76
80149;BME280;69473;42.426;26.644;2023-09-19T10:15:26;99182.69;;;25.98;38.60
80149;BME280;69473;42.426;26.644;2023-09-19T10:17:52;99188.78;;;25.86;38.45
80149;BME280;69473;42.426;26.644;2023-09-19T10:20:22;99183.44;;;26.00;37.94
80149;BME280;69473;42.426;26.644;2023-09-19T10:22:57;99174.34;;;26.05;38.11
80149;BME280;69473;42.426;26.644;2023-09-19T10:25:28;99169.69;;;26.35;38.19
80149;BME280;69473;42.426;26.644;2023-09-19T10:27:57;99177.72;;;26.62;38.44
80149;BME280;69473;42.426;26.644;2023-09-19T10:30:24;99166.78;;;26.67;38.13
80149;BME280;69473;42.426;26.644;2023-09-19T10:33:01;99166.72;;;26.81;36.96
80149;BME280;69473;42.426;26.644;2023-09-19T10:35:28;99160.34;;;26.84;37.17
80149;BME280;69473;42.426;26.644;2023-09-19T10:38:01;99151.97;;;26.63;37.49
80149;BME280;69473;42.426;26.644;2023-09-19T10:40:28;99157.78;;;26.82;37.31
80149;BME280;69473;42.426;26.644;2023-09-19T10:43:04;99153.75;;;26.89;37.89
80149;BME280;69473;42.426;26.644;2023-09-19T10:45:35;99148.53;;;27.01;37.36
80149;BME280;69473;42.426;26.644;2023-09-19T10:48:02;99138.88;;;26.87;36.70
80149;BME280;69473;42.426;26.644;2023-09-19T10:53:12;99141.84;;;26.82;37.43
80149;BME280;69473;42.426;26.644;2023-09-19T10:55:39;99136.09;;;26.88;37.37
80149;BME280;69473;42.426;26.644;2023-09-19T10:58:06;99138.81;;;26.61;37.62
80149;BME280;69473;42.426;26.644;2023-09-19T11:00:55;99136.25;;;26.60;37.59
80149;BME280;69473;42.426;26.644;2023-09-19T11:03:22;99135.63;;;26.69;37.52
80149;BME280;69473;42.426;26.644;2023-09-19T11:06:10;99126.06;;;26.39;37.46
80149;BME280;69473;42.426;26.644;2023-09-19T11:09:02;99131.06;;;26.44;37.11
80149;BME280;69473;42.426;26.644;2023-09-19T11:11:44;99128.41;;;26.71;37.44
80149;BME280;69473;42.426;26.644;2023-09-19T11:30:36;99103.75;;;26.94;35.66
80149;BME280;69473;42.426;26.644;2023-09-19T11:33:26;99092.84;;;27.12;36.54
80149;BME280;69473;42.426;26.644;2023-09-19T11:36:15;99090.16;;;27.12;35.57
80149;BME280;69473;42.426;26.644;2023-09-19T11:49:19;99077.38;;;26.66;35.86
80149;BME280;69473;42.426;26.644;2023-09-19T11:51:51;99050.81;;;26.91;35.59
80149;BME280;69473;42.426;26.644;2023-09-19T11:54:17;99084.97;;;27.10;35.40
80149;BME280;69473;42.426;26.644;2023-09-19T11:56:45;99072.94;;;27.05;35.02
80149;BME280;69473;42.426;26.644;2023-09-19T11:59:23;99068.06;;;27.11;34.04
80149;BME280;69473;42.426;26.644;2023-09-19T12:02:04;99071.66;;;26.98;35.56
80149;BME280;69473;42.426;26.644;2023-09-19T12:04:35;99058.69;;;27.06;35.15
80149;BME280;69473;42.426;26.644;2023-09-19T12:07:04;99068.28;;;26.95;35.46
80149;BME280;69473;42.426;26.644;2023-09-19T12:09:31;99058.69;;;27.06;35.30
80149;BME280;69473;42.426;26.644;2023-09-19T12:11:57;99057.84;;;26.92;34.66
80149;BME280;69473;42.426;26.644;2023-09-19T12:14:25;99049.97;;;26.91;35.15
80149;BME280;69473;42.426;26.644;2023-09-19T12:16:53;99063.78;;;27.09;34.52
80149;BME280;69473;42.426;26.644;2023-09-19T12:19:22;99056.56;;;27.36;34.80
80149;BME280;69473;42.426;26.644;2023-09-19T12:21:59;99048.06;;;27.31;34.14
80149;BME280;69473;42.426;26.644;2023-09-19T12:24:30;99046.78;;;27.37;33.89
80149;BME280;69473;42.426;26.644;2023-09-19T12:27:04;99037.41;;;27.31;33.12
80149;BME280;69473;42.426;26.644;2023-09-19T12:29:32;99042.88;;;27.67;33.78
80149;BME280;69473;42.426;26.644;2023-09-19T12:32:07;99036.25;;;27.72;33.53
80149;BME280;69473;42.426;26.644;2023-09-19T12:34:33;99031.59;;;27.63;33.02
80149;BME280;69473;42.426;26.644;2023-09-19T12:37:12;99027.53;;;27.70;34.36
80149;BME280;69473;42.426;26.644;2023-09-19T12:39:39;99029.16;;;27.97;33.01
80149;BME280;69473;42.426;26.644;2023-09-19T12:42:11;99024.63;;;28.10;33.42
80149;BME280;69473;42.426;26.644;2023-09-19T12:44:42;99028.69;;;28.03;34.01
80149;BME280;69473;42.426;26.644;2023-09-19T12:47:16;99024.72;;;27.84;33.16
80149;BME280;69473;42.426;26.644;2023-09-19T12:50:14;99022.13;;;27.96;33.66
80149;BME280;69473;42.426;26.644;2023-09-19T12:52:50;99009.13;;;27.30;34.42
80149;BME280;69473;42.426;26.644;2023-09-19T13:00:44;99014.72;;;27.75;33.44
80149;BME280;69473;42.426;26.644;2023-09-19T13:05:55;99014.81;;;27.50;33.86
80149;BME280;69473;42.426;26.644;2023-09-19T13:08:25;99008.81;;;27.59;34.45
80149;BME280;69473;42.426;26.644;2023-09-19T13:13:27;99007.78;;;27.49;33.51
80149;BME280;69473;42.426;26.644;2023-09-19T13:15:54;99004.16;;;27.50;33.37
80149;BME280;69473;42.426;26.644;2023-09-19T13:18:19;99002.97;;;27.54;33.82
80149;BME280;69473;42.426;26.644;2023-09-19T13:21:06;98998.25;;;27.33;34.34
80149;BME280;69473;42.426;26.644;2023-09-19T13:23:35;99000.47;;;27.39;34.75
80149;BME280;69473;42.426;26.644;2023-09-19T13:26:02;98997.78;;;27.52;34.97
80149;BME280;69473;42.426;26.644;2023-09-19T13:28:29;98990.50;;;27.67;34.60
80149;BME280;69473;42.426;26.644;2023-09-19T13:30:55;99002.28;;;27.39;35.09
80149;BME280;69473;42.426;26.644;2023-09-19T13:33:22;98991.66;;;27.39;35.62
80149;BME280;69473;42.426;26.644;2023-09-19T13:35:47;98995.56;;;27.46;36.13
80149;BME280;69473;42.426;26.644;2023-09-19T13:38:14;98996.19;;;27.50;35.22
80149;BME280;69473;42.426;26.644;2023-09-19T13:40:40;98995.91;;;27.42;35.34
80149;BME280;69473;42.426;26.644;2023-09-19T13:43:07;98987.03;;;27.17;35.02
80149;BME280;69473;42.426;26.644;2023-09-19T13:45:33;98993.34;;;27.40;35.96
80149;BME280;69473;42.426;26.644;2023-09-19T13:47:59;98999.75;;;27.12;35.85
80149;BME280;69473;42.426;26.644;2023-09-19T13:50:25;98989.13;;;27.12;36.68
80149;BME280;69473;42.426;26.644;2023-09-19T13:52:51;98998.47;;;27.30;35.77
80149;BME280;69473;42.426;26.644;2023-09-19T13:55:19;98992.53;;;26.88;36.84
80149;BME280;69473;42.426;26.644;2023-09-19T13:57:49;98997.19;;;26.98;36.87
80149;BME280;69473;42.426;26.644;2023-09-19T14:00:21;98995.09;;;26.77;37.46
80149;BME280;69473;42.426;26.644;2023-09-19T14:02:48;98997.22;;;26.72;36.82
80149;BME280;69473;42.426;26.644;2023-09-19T14:05:14;98994.69;;;26.70;37.57
80149;BME280;69473;42.426;26.644;2023-09-19T14:07:44;98995.75;;;26.81;37.09